sensor_id;sensor_type;location;lat;lon;timestamp;pressure;altitude;pressure_sealevel;temperature;humidity
57376;BME280;44805;45.048;5.062;2022-07-22T00:22:15;99699.59;;;23.13;46.09
57376;BME280;44805;45.048;5.062;2022-07-22T00:24:41;99703.91;;;23.03;46.53
57376;BME280;44805;45.048;5.062;2022-07-22T00:27:07;99753.34;;;23.37;46.47
57376;BME280;44805;45.048;5.062;2022-07-22T00:29:41;99767.84;;;23.36;46.60
57376;BME280;44805;45.048;5.062;2022-07-22T00:32:07;99695.47;;;22.87;46.49
57376;BME280;44805;45.048;5.062;2022-07-22T00:34:33;99722.63;;;23.21;46.41
57376;BME280;44805;45.048;5.062;2022-07-22T00:37:06;99695.88;;;23.03;46.37
57376;BME280;44805;45.048;5.062;2022-07-22T00:39:42;99682.50;;;22.96;46.79
57376;BME280;44805;45.048;5.062;2022-07-22T00:42:13;99682.72;;;22.83;47.33
57376;BME280;44805;45.048;5.062;2022-07-22T00:44:39;99688.97;;;22.76;48.25
57376;BME280;44805;45.048;5.062;2022-07-22T00:47:05;99707.47;;;22.96;48.02
57376;BME280;44805;45.048;5.062;2022-07-22T00:49:31;99716.47;;;22.90;47.82
57376;BME280;44805;45.048;5.062;2022-07-22T00:51:56;99727.38;;;23.07;48.00
57376;BME280;44805;45.048;5.062;2022-07-22T00:54:27;99721.03;;;22.90;47.84
57376;BME280;44805;45.048;5.062;2022-07-22T00:59:21;99670.06;;;22.60;47.82
57376;BME280;44805;45.048;5.062;2022-07-22T01:01:49;99681.00;;;22.58;47.47
57376;BME280;44805;45.048;5.062;2022-07-22T01:04:19;99699.31;;;22.61;48.50
57376;BME280;44805;45.048;5.062;2022-07-22T01:06:47;99729.84;;;22.79;48.40
57376;BME280;44805;45.048;5.062;2022-07-22T01:09:16;99691.38;;;22.54;48.29
57376;BME280;44805;45.048;5.062;2022-07-22T01:11:41;99719.31;;;22.65;48.90
57376;BME280;44805;45.048;5.062;2022-07-22T01:14:10;99723.59;;;22.54;49.37
57376;BME280;44805;45.048;5.062;2022-07-22T01:16:37;99667.97;;;22.13;49.96
57376;BME280;44805;45.048;5.062;2022-07-22T01:19:06;99679.00;;;22.23;49.41
57376;BME280;44805;45.048;5.062;2022-07-22T01:21:32;99722.03;;;22.47;50.22
57376;BME280;44805;45.048;5.062;2022-07-22T01:23:58;99680.66;;;22.06;50.43
57376;BME280;44805;45.048;5.062;2022-07-22T01:26:24;99683.22;;;22.13;50.17
57376;BME280;44805;45.048;5.062;2022-07-22T01:28:52;99729.66;;;22.31;50.20
57376;BME280;44805;45.048;5.062;2022-07-22T01:31:18;99678.25;;;21.98;50.07
57376;BME280;44805;45.048;5.062;2022-07-22T01:33:44;99653.03;;;21.87;50.09
57376;BME280;44805;45.048;5.062;2022-07-22T01:36:10;99691.66;;;21.98;50.78
57376;BME280;44805;45.048;5.062;2022-07-22T01:38:38;99684.53;;;21.92;50.66
57376;BME280;44805;45.048;5.062;2022-07-22T01:41:09;99717.44;;;21.99;50.44
57376;BME280;44805;45.048;5.062;2022-07-22T01:43:35;99670.06;;;21.74;50.33
57376;BME280;44805;45.048;5.062;2022-07-22T01:46:01;99680.44;;;21.71;50.37
57376;BME280;44805;45.048;5.062;2022-07-22T01:48:29;99772.66;;;22.25;51.16
57376;BME280;44805;45.048;5.062;2022-07-22T01:50:57;99683.97;;;21.64;50.82
57376;BME280;44805;45.048;5.062;2022-07-22T01:53:25;99776.41;;;22.17;51.07
57376;BME280;44805;45.048;5.062;2022-07-22T01:55:53;99684.34;;;21.50;50.75
57376;BME280;44805;45.048;5.062;2022-07-22T02:01:32;99735.28;;;21.68;51.18
57376;BME280;44805;45.048;5.062;2022-07-22T02:04:03;99710.19;;;21.37;51.48
57376;BME280;44805;45.048;5.062;2022-07-22T02:06:28;99736.56;;;21.65;51.09
57376;BME280;44805;45.048;5.062;2022-07-22T02:08:56;99733.25;;;21.63;51.39
57376;BME280;44805;45.048;5.062;2022-07-22T02:11:21;99735.84;;;21.52;52.02
57376;BME280;44805;45.048;5.062;2022-07-22T02:14:20;99763.69;;;21.51;53.00
57376;BME280;44805;45.048;5.062;2022-07-22T02:16:46;99731.66;;;21.06;53.51
57376;BME280;44805;45.048;5.062;2022-07-22T02:19:11;99715.59;;;21.06;53.15
57376;BME280;44805;45.048;5.062;2022-07-22T02:21:37;99681.84;;;20.73;53.68
57376;BME280;44805;45.048;5.062;2022-07-22T02:24:03;99703.84;;;20.81;54.02
57376;BME280;44805;45.048;5.062;2022-07-22T02:26:29;99687.13;;;20.54;54.87
57376;BME280;44805;45.048;5.062;2022-07-22T02:32:16;99750.03;;;20.95;55.15
57376;BME280;44805;45.048;5.062;2022-07-22T02:34:42;99725.28;;;20.75;54.56
57376;BME280;44805;45.048;5.062;2022-07-22T02:37:07;99723.53;;;20.55;55.43
57376;BME280;44805;45.048;5.062;2022-07-22T02:39:33;99744.75;;;20.44;56.94
57376;BME280;44805;45.048;5.062;2022-07-22T02:41:58;99721.44;;;20.12;57.45
57376;BME280;44805;45.048;5.062;2022-07-22T02:47:47;99778.16;;;20.73;56.82
57376;BME280;44805;45.048;5.062;2022-07-22T02:50:13;99738.56;;;20.56;56.35
57376;BME280;44805;45.048;5.062;2022-07-22T02:52:42;99735.66;;;20.51;56.17
57376;BME280;44805;45.048;5.062;2022-07-22T02:55:08;99744.53;;;20.45;56.72
57376;BME280;44805;45.048;5.062;2022-07-22T03:01:16;99744.78;;;20.37;57.03
57376;BME280;44805;45.048;5.062;2022-07-22T03:03:45;99701.75;;;20.00;58.01
57376;BME280;44805;45.048;5.062;2022-07-22T03:06:11;99727.63;;;20.06;58.01
57376;BME280;44805;45.048;5.062;2022-07-22T03:08:47;99769.91;;;20.29;58.35
57376;BME280;44805;45.048;5.062;2022-07-22T03:11:12;99733.75;;;20.13;58.43
57376;BME280;44805;45.048;5.062;2022-07-22T03:17:02;99788.84;;;20.28;58.37
57376;BME280;44805;45.048;5.062;2022-07-22T03:19:28;99709.59;;;19.82;58.25
57376;BME280;44805;45.048;5.062;2022-07-22T03:21:55;99689.47;;;19.66;58.70
57376;BME280;44805;45.048;5.062;2022-07-22T03:24:21;99698.47;;;19.91;58.08
57376;BME280;44805;45.048;5.062;2022-07-22T03:26:46;99677.50;;;19.95;57.96
57376;BME280;44805;45.048;5.062;2022-07-22T03:29:12;99714.38;;;20.25;58.18
57376;BME280;44805;45.048;5.062;2022-07-22T03:31:40;99681.56;;;20.04;57.50
57376;BME280;44805;45.048;5.062;2022-07-22T03:34:05;99727.16;;;20.23;57.42
57376;BME280;44805;45.048;5.062;2022-07-22T03:36:31;99682.09;;;19.68;58.92
57376;BME280;44805;45.048;5.062;2022-07-22T03:38:57;99743.06;;;19.91;58.90
57376;BME280;44805;45.048;5.062;2022-07-22T03:41:22;99787.25;;;20.00;59.66
57376;BME280;44805;45.048;5.062;2022-07-22T03:44:07;99787.84;;;20.02;59.55
57376;BME280;44805;45.048;5.062;2022-07-22T03:46:32;99721.72;;;19.58;59.36
57376;BME280;44805;45.048;5.062;2022-07-22T03:48:58;99700.38;;;19.38;60.09
57376;BME280;44805;45.048;5.062;2022-07-22T03:51:23;99683.75;;;19.16;60.34
57376;BME280;44805;45.048;5.062;2022-07-22T03:53:49;99731.00;;;19.42;60.05
57376;BME280;44805;45.048;5.062;2022-07-22T03:56:14;99723.59;;;19.37;60.25
57376;BME280;44805;45.048;5.062;2022-07-22T04:02:08;99739.22;;;19.27;61.46
57376;BME280;44805;45.048;5.062;2022-07-22T04:04:34;99755.03;;;19.42;61.01
57376;BME280;44805;45.048;5.062;2022-07-22T04:06:59;99687.03;;;18.98;61.47
57376;BME280;44805;45.048;5.062;2022-07-22T04:09:25;99756.03;;;19.41;61.03
57376;BME280;44805;45.048;5.062;2022-07-22T04:11:53;99697.72;;;19.04;61.17
57376;BME280;44805;45.048;5.062;2022-07-22T04:14:19;99710.88;;;19.33;61.27
57376;BME280;44805;45.048;5.062;2022-07-22T04:16:44;99697.31;;;19.27;61.05
57376;BME280;44805;45.048;5.062;2022-07-22T04:19:10;99758.91;;;19.66;60.68
57376;BME280;44805;45.048;5.062;2022-07-22T04:21:39;99719.69;;;19.53;60.58
57376;BME280;44805;45.048;5.062;2022-07-22T04:24:05;99734.28;;;19.57;61.20
57376;BME280;44805;45.048;5.062;2022-07-22T04:26:31;99695.06;;;19.31;61.14
57376;BME280;44805;45.048;5.062;2022-07-22T04:32:18;99733.47;;;19.57;61.44
57376;BME280;44805;45.048;5.062;2022-07-22T04:34:44;99764.28;;;19.59;61.56
57376;BME280;44805;45.048;5.062;2022-07-22T04:37:09;99741.25;;;19.45;62.10
57376;BME280;44805;45.048;5.062;2022-07-22T04:39:35;99739.63;;;19.44;61.74
57376;BME280;44805;45.048;5.062;2022-07-22T04:42:00;99771.69;;;19.77;61.72
57376;BME280;44805;45.048;5.062;2022-07-22T04:44:26;99742.88;;;19.46;61.85
57376;BME280;44805;45.048;5.062;2022-07-22T04:46:51;99702.66;;;19.14;62.08
57376;BME280;44805;45.048;5.062;2022-07-22T04:49:17;99708.38;;;18.98;63.15
57376;BME280;44805;45.048;5.062;2022-07-22T04:51:42;99729.75;;;19.18;62.60
57376;BME280;44805;45.048;5.062;2022-07-22T04:54:08;99767.34;;;19.29;63.03
57376;BME280;44805;45.048;5.062;2022-07-22T04:56:33;99758.50;;;19.36;63.05
57376;BME280;44805;45.048;5.062;2022-07-22T04:59:33;99797.94;;;19.60;62.46
57376;BME280;44805;45.048;5.062;2022-07-22T05:01:58;99800.00;;;19.45;63.18
57376;BME280;44805;45.048;5.062;2022-07-22T05:04:24;99800.84;;;19.52;62.44
57376;BME280;44805;45.048;5.062;2022-07-22T05:06:50;99743.72;;;19.26;62.27
57376;BME280;44805;45.048;5.062;2022-07-22T05:09:16;99726.06;;;19.19;62.08
57376;BME280;44805;45.048;5.062;2022-07-22T05:11:41;99717.25;;;19.12;62.63
57376;BME280;44805;45.048;5.062;2022-07-22T05:17:54;99726.69;;;19.27;62.45
57376;BME280;44805;45.048;5.062;2022-07-22T05:20:50;99800.41;;;20.08;61.35
57376;BME280;44805;45.048;5.062;2022-07-22T05:23:52;99708.16;;;19.66;60.96
57376;BME280;44805;45.048;5.062;2022-07-22T05:26:48;99802.84;;;20.23;60.76
57376;BME280;44805;45.048;5.062;2022-07-22T05:29:36;99742.41;;;20.02;60.65
57376;BME280;44805;45.048;5.062;2022-07-22T05:32:17;99758.41;;;20.22;60.24
57376;BME280;44805;45.048;5.062;2022-07-22T05:34:49;99742.72;;;20.32;59.66
57376;BME280;44805;45.048;5.062;2022-07-22T05:37:41;99717.72;;;20.13;59.68
57376;BME280;44805;45.048;5.062;2022-07-22T05:40:51;99794.44;;;20.71;59.70
57376;BME280;44805;45.048;5.062;2022-07-22T05:48:30;99794.28;;;21.05;58.54
57376;BME280;44805;45.048;5.062;2022-07-22T05:51:24;99748.38;;;20.63;58.21
57376;BME280;44805;45.048;5.062;2022-07-22T06:11:14;99775.09;;;21.39;56.58
57376;BME280;44805;45.048;5.062;2022-07-22T06:21:14;99764.47;;;21.76;55.10
57376;BME280;44805;45.048;5.062;2022-07-22T06:23:42;99763.38;;;22.02;53.96
57376;BME280;44805;45.048;5.062;2022-07-22T06:26:10;99766.75;;;22.16;53.88
57376;BME280;44805;45.048;5.062;2022-07-22T06:28:36;99749.91;;;22.27;54.14
57376;BME280;44805;45.048;5.062;2022-07-22T06:31:01;99802.63;;;22.70;52.95
57376;BME280;44805;45.048;5.062;2022-07-22T06:33:27;99768.16;;;22.56;52.99
57376;BME280;44805;45.048;5.062;2022-07-22T06:35:55;99747.00;;;22.47;53.37
57376;BME280;44805;45.048;5.062;2022-07-22T06:38:21;99765.06;;;22.70;52.88
57376;BME280;44805;45.048;5.062;2022-07-22T06:40:46;99722.38;;;22.50;52.91
57376;BME280;44805;45.048;5.062;2022-07-22T06:43:12;99730.03;;;22.65;51.95
57376;BME280;44805;45.048;5.062;2022-07-22T06:51:26;99749.69;;;23.08;52.05
57376;BME280;44805;45.048;5.062;2022-07-22T06:53:52;99749.22;;;23.23;50.59
57376;BME280;44805;45.048;5.062;2022-07-22T06:56:18;99734.41;;;23.08;49.84
57376;BME280;44805;45.048;5.062;2022-07-22T07:05:37;99714.94;;;23.36;48.42
57376;BME280;44805;45.048;5.062;2022-07-22T07:08:47;99713.28;;;23.47;47.68
57376;BME280;44805;45.048;5.062;2022-07-22T07:11:12;99791.72;;;23.91;47.08
57376;BME280;44805;45.048;5.062;2022-07-22T07:13:38;99750.13;;;23.82;47.12
57376;BME280;44805;45.048;5.062;2022-07-22T07:16:04;99739.66;;;24.09;46.37
57376;BME280;44805;45.048;5.062;2022-07-22T07:18:30;99728.94;;;23.86;46.50
57376;BME280;44805;45.048;5.062;2022-07-22T07:20:55;99702.31;;;23.72;46.69
57376;BME280;44805;45.048;5.062;2022-07-22T07:23:21;99790.50;;;24.34;46.61
57376;BME280;44805;45.048;5.062;2022-07-22T07:25:47;99744.81;;;24.11;46.30
57376;BME280;44805;45.048;5.062;2022-07-22T07:28:13;99701.03;;;23.87;46.33
57376;BME280;44805;45.048;5.062;2022-07-22T07:33:59;99756.69;;;24.38;46.04
57376;BME280;44805;45.048;5.062;2022-07-22T07:36:30;99757.97;;;24.47;45.05
57376;BME280;44805;45.048;5.062;2022-07-22T07:38:59;99711.22;;;24.25;44.63
57376;BME280;44805;45.048;5.062;2022-07-22T07:41:51;99739.03;;;24.31;44.68
57376;BME280;44805;45.048;5.062;2022-07-22T07:46:53;99728.19;;;24.66;44.09
57376;BME280;44805;45.048;5.062;2022-07-22T07:49:18;99723.19;;;24.75;43.30
57376;BME280;44805;45.048;5.062;2022-07-22T07:51:44;99707.19;;;24.39;44.42
57376;BME280;44805;45.048;5.062;2022-07-22T07:54:09;99699.31;;;24.50;44.29
57376;BME280;44805;45.048;5.062;2022-07-22T07:56:38;99696.19;;;24.69;42.88
57376;BME280;44805;45.048;5.062;2022-07-22T08:06:39;99691.88;;;24.85;42.06
57376;BME280;44805;45.048;5.062;2022-07-22T08:09:05;99749.34;;;25.37;41.65
57376;BME280;44805;45.048;5.062;2022-07-22T08:11:30;99721.81;;;25.34;41.53
57376;BME280;44805;45.048;5.062;2022-07-22T08:13:58;99736.91;;;25.52;41.46
57376;BME280;44805;45.048;5.062;2022-07-22T08:16:27;99704.06;;;25.39;41.59
57376;BME280;44805;45.048;5.062;2022-07-22T08:18:56;99689.06;;;25.43;41.64
57376;BME280;44805;45.048;5.062;2022-07-22T08:21:22;99692.53;;;25.60;41.45
57376;BME280;44805;45.048;5.062;2022-07-22T08:23:47;99721.63;;;25.97;41.29
57376;BME280;44805;45.048;5.062;2022-07-22T08:26:13;99690.59;;;25.94;40.16
57376;BME280;44805;45.048;5.062;2022-07-22T08:28:38;99722.41;;;26.14;40.34
57376;BME280;44805;45.048;5.062;2022-07-22T08:31:28;99768.97;;;26.49;40.54
57376;BME280;44805;45.048;5.062;2022-07-22T08:33:54;99718.72;;;26.20;40.19
57376;BME280;44805;45.048;5.062;2022-07-22T08:36:25;99697.13;;;25.98;39.73
57376;BME280;44805;45.048;5.062;2022-07-22T08:38:56;99689.22;;;26.14;39.58
57376;BME280;44805;45.048;5.062;2022-07-22T08:41:34;99775.16;;;26.71;39.90
57376;BME280;44805;45.048;5.062;2022-07-22T08:44:30;99707.34;;;26.68;39.26
57376;BME280;44805;45.048;5.062;2022-07-22T08:47:01;99690.16;;;26.79;38.63
57376;BME280;44805;45.048;5.062;2022-07-22T08:49:42;99700.56;;;26.92;38.66
57376;BME280;44805;45.048;5.062;2022-07-22T08:52:17;99662.91;;;26.80;38.55
57376;BME280;44805;45.048;5.062;2022-07-22T08:54:53;99657.25;;;26.82;38.77
57376;BME280;44805;45.048;5.062;2022-07-22T08:57:35;99723.13;;;27.40;38.51
57376;BME280;44805;45.048;5.062;2022-07-22T09:00:34;99743.81;;;28.04;38.74
57376;BME280;44805;45.048;5.062;2022-07-22T09:03:00;99660.00;;;27.72;37.61
57376;BME280;44805;45.048;5.062;2022-07-22T09:05:35;99666.06;;;27.89;37.47
57376;BME280;44805;45.048;5.062;2022-07-22T09:08:07;99703.50;;;28.13;37.94
57376;BME280;44805;45.048;5.062;2022-07-22T09:10:37;99664.72;;;27.92;38.08
57376;BME280;44805;45.048;5.062;2022-07-22T09:13:07;99690.56;;;28.30;37.16
57376;BME280;44805;45.048;5.062;2022-07-22T09:21:40;99665.72;;;28.64;35.95
57376;BME280;44805;45.048;5.062;2022-07-22T09:24:12;99647.31;;;28.46;35.39
57376;BME280;44805;45.048;5.062;2022-07-22T09:26:54;99692.59;;;28.96;35.86
57376;BME280;44805;45.048;5.062;2022-07-22T09:29:54;99728.41;;;29.24;36.22
57376;BME280;44805;45.048;5.062;2022-07-22T09:35:21;99724.59;;;29.30;34.76
57376;BME280;44805;45.048;5.062;2022-07-22T09:38:29;99720.25;;;29.04;35.15
57376;BME280;44805;45.048;5.062;2022-07-22T09:44:22;99679.81;;;29.43;34.84
57376;BME280;44805;45.048;5.062;2022-07-22T16:10:34;99354.03;;;37.20;18.67
57376;BME280;44805;45.048;5.062;2022-07-22T23:24:14;99637.16;;;27.47;45.09
57376;BME280;44805;45.048;5.062;2022-07-22T23:26:41;99612.75;;;27.32;45.52
57376;BME280;44805;45.048;5.062;2022-07-22T23:29:55;99611.25;;;27.14;45.23
57376;BME280;44805;45.048;5.062;2022-07-22T23:32:58;99626.06;;;27.06;44.80
57376;BME280;44805;45.048;5.062;2022-07-22T23:35:48;99626.03;;;27.01;45.10
57376;BME280;44805;45.048;5.062;2022-07-22T23:38:19;99632.25;;;27.02;44.27
57376;BME280;44805;45.048;5.062;2022-07-22T23:41:13;99717.47;;;27.47;44.41
57376;BME280;44805;45.048;5.062;2022-07-22T23:43:54;99647.09;;;26.99;44.26
57376;BME280;44805;45.048;5.062;2022-07-22T23:46:29;99721.50;;;27.44;44.38
57376;BME280;44805;45.048;5.062;2022-07-22T23:49:25;99635.19;;;26.95;44.50
57376;BME280;44805;45.048;5.062;2022-07-22T23:52:30;99635.28;;;27.05;43.60
57376;BME280;44805;45.048;5.062;2022-07-22T23:55:18;99707.53;;;27.58;44.25
57376;BME280;44805;45.048;5.062;2022-07-22T23:57:49;99735.94;;;27.60;45.75
